sensor_id;sensor_type;location;lat;lon;timestamp;pressure;altitude;pressure_sealevel;temperature;humidity
59337;BME280;45115;52.002;4.686;2022-12-08T00:01:19;101218.97;;;3.33;100.00
59337;BME280;45115;52.002;4.686;2022-12-08T00:03:46;101217.00;;;3.28;100.00
59337;BME280;45115;52.002;4.686;2022-12-08T00:06:24;101214.59;;;3.27;100.00
59337;BME280;45115;52.002;4.686;2022-12-08T00:09:20;101190.44;;;3.11;100.00
59337;BME280;45115;52.002;4.686;2022-12-08T00:11:56;101186.69;;;3.00;100.00
59337;BME280;45115;52.002;4.686;2022-12-08T00:14:25;101179.06;;;2.85;100.00
59337;BME280;45115;52.002;4.686;2022-12-08T00:16:52;101178.69;;;2.75;100.00
59337;BME280;45115;52.002;4.686;2022-12-08T00:19:20;101176.06;;;2.68;100.00
59337;BME280;45115;52.002;4.686;2022-12-08T00:21:47;101162.38;;;2.66;100.00
59337;BME280;45115;52.002;4.686;2022-12-08T00:24:13;101161.97;;;2.69;100.00
59337;BME280;45115;52.002;4.686;2022-12-08T00:26:40;101158.72;;;2.74;100.00
59337;BME280;45115;52.002;4.686;2022-12-08T00:29:09;101157.50;;;2.76;100.00
59337;BME280;45115;52.002;4.686;2022-12-08T00:31:35;101150.50;;;2.70;100.00
59337;BME280;45115;52.002;4.686;2022-12-08T00:34:02;101150.69;;;2.62;100.00
59337;BME280;45115;52.002;4.686;2022-12-08T00:36:29;101139.84;;;2.58;100.00
59337;BME280;45115;52.002;4.686;2022-12-08T00:38:56;101124.94;;;2.52;100.00
59337;BME280;45115;52.002;4.686;2022-12-08T00:41:24;101134.59;;;2.51;100.00
59337;BME280;45115;52.002;4.686;2022-12-08T00:44:05;101128.59;;;2.44;100.00
59337;BME280;45115;52.002;4.686;2022-12-08T00:46:34;101138.25;;;2.44;100.00
59337;BME280;45115;52.002;4.686;2022-12-08T00:49:00;101127.78;;;2.44;100.00
59337;BME280;45115;52.002;4.686;2022-12-08T00:51:27;101119.13;;;2.43;100.00
59337;BME280;45115;52.002;4.686;2022-12-08T00:53:54;101116.25;;;2.58;100.00
59337;BME280;45115;52.002;4.686;2022-12-08T00:56:20;101114.41;;;2.65;100.00
59337;BME280;45115;52.002;4.686;2022-12-08T00:58:47;101118.00;;;2.78;100.00
59337;BME280;45115;52.002;4.686;2022-12-08T01:01:14;101121.00;;;2.82;100.00
59337;BME280;45115;52.002;4.686;2022-12-08T01:03:42;101108.50;;;2.84;100.00
59337;BME280;45115;52.002;4.686;2022-12-08T01:06:09;101108.56;;;2.77;100.00
59337;BME280;45115;52.002;4.686;2022-12-08T01:08:36;101111.94;;;2.84;100.00
59337;BME280;45115;52.002;4.686;2022-12-08T01:11:04;101118.97;;;2.90;100.00
59337;BME280;45115;52.002;4.686;2022-12-08T01:13:31;101107.06;;;2.88;100.00
59337;BME280;45115;52.002;4.686;2022-12-08T01:15:58;101114.81;;;3.08;100.00
59337;BME280;45115;52.002;4.686;2022-12-08T01:18:25;101108.59;;;3.09;100.00
59337;BME280;45115;52.002;4.686;2022-12-08T01:20:53;101101.66;;;3.22;100.00
59337;BME280;45115;52.002;4.686;2022-12-08T01:23:20;101111.50;;;3.26;100.00
59337;BME280;45115;52.002;4.686;2022-12-08T01:25:47;101116.50;;;3.35;100.00
59337;BME280;45115;52.002;4.686;2022-12-08T01:28:14;101109.63;;;3.40;100.00
59337;BME280;45115;52.002;4.686;2022-12-08T01:30:40;101106.56;;;3.43;100.00
59337;BME280;45115;52.002;4.686;2022-12-08T01:33:07;101099.34;;;3.39;100.00
59337;BME280;45115;52.002;4.686;2022-12-08T01:35:34;101099.53;;;3.37;100.00
59337;BME280;45115;52.002;4.686;2022-12-08T01:38:02;101093.91;;;3.34;100.00
59337;BME280;45115;52.002;4.686;2022-12-08T01:40:28;101099.53;;;3.37;100.00
59337;BME280;45115;52.002;4.686;2022-12-08T01:42:55;101084.88;;;3.29;100.00
59337;BME280;45115;52.002;4.686;2022-12-08T01:45:24;101090.97;;;3.23;100.00
59337;BME280;45115;52.002;4.686;2022-12-08T01:47:54;101085.16;;;3.14;100.00
59337;BME280;45115;52.002;4.686;2022-12-08T01:50:23;101091.56;;;3.18;100.00
59337;BME280;45115;52.002;4.686;2022-12-08T01:52:52;101087.91;;;3.26;100.00
59337;BME280;45115;52.002;4.686;2022-12-08T01:55:25;101083.88;;;3.24;100.00
59337;BME280;45115;52.002;4.686;2022-12-08T01:57:56;101080.50;;;3.16;100.00
59337;BME280;45115;52.002;4.686;2022-12-08T02:00:25;101068.47;;;3.09;100.00
59337;BME280;45115;52.002;4.686;2022-12-08T02:02:56;101073.50;;;3.10;100.00
59337;BME280;45115;52.002;4.686;2022-12-08T02:05:26;101071.25;;;3.14;100.00
59337;BME280;45115;52.002;4.686;2022-12-08T02:07:54;101084.94;;;3.16;100.00
59337;BME280;45115;52.002;4.686;2022-12-08T02:10:27;101082.03;;;3.31;100.00
59337;BME280;45115;52.002;4.686;2022-12-08T02:12:56;101085.41;;;3.38;100.00
59337;BME280;45115;52.002;4.686;2022-12-08T02:15:30;101076.59;;;3.32;100.00
59337;BME280;45115;52.002;4.686;2022-12-08T02:18:07;101077.81;;;3.30;100.00
59337;BME280;45115;52.002;4.686;2022-12-08T02:20:46;101072.56;;;3.30;100.00
59337;BME280;45115;52.002;4.686;2022-12-08T08:18:03;100894.69;;;2.18;100.00
59337;BME280;45115;52.002;4.686;2022-12-08T08:20:30;100897.09;;;2.20;100.00
59337;BME280;45115;52.002;4.686;2022-12-08T08:22:57;100910.19;;;2.20;100.00
59337;BME280;45115;52.002;4.686;2022-12-08T08:25:24;100899.72;;;2.13;100.00
59337;BME280;45115;52.002;4.686;2022-12-08T08:27:50;100915.78;;;2.23;100.00
59337;BME280;45115;52.002;4.686;2022-12-08T08:30:17;100920.19;;;2.30;100.00
59337;BME280;45115;52.002;4.686;2022-12-08T08:32:44;100923.78;;;2.35;100.00
59337;BME280;45115;52.002;4.686;2022-12-08T08:35:12;100930.81;;;2.42;100.00
59337;BME280;45115;52.002;4.686;2022-12-08T08:37:39;100935.41;;;2.46;100.00
59337;BME280;45115;52.002;4.686;2022-12-08T08:40:07;100936.78;;;2.49;100.00
59337;BME280;45115;52.002;4.686;2022-12-08T08:42:34;100924.69;;;2.55;100.00
59337;BME280;45115;52.002;4.686;2022-12-08T08:45:01;100934.31;;;2.61;100.00
59337;BME280;45115;52.002;4.686;2022-12-08T08:47:28;100941.78;;;2.57;100.00
59337;BME280;45115;52.002;4.686;2022-12-08T08:49:54;100941.59;;;2.59;100.00
59337;BME280;45115;52.002;4.686;2022-12-08T08:52:22;100944.81;;;2.54;100.00
59337;BME280;45115;52.002;4.686;2022-12-08T08:54:49;100930.38;;;2.45;100.00
59337;BME280;45115;52.002;4.686;2022-12-08T08:57:16;100942.00;;;2.56;100.00
59337;BME280;45115;52.002;4.686;2022-12-08T08:59:43;100930.53;;;2.50;100.00
59337;BME280;45115;52.002;4.686;2022-12-08T09:02:14;100930.13;;;2.53;100.00
59337;BME280;45115;52.002;4.686;2022-12-08T09:04:41;100929.72;;;2.56;100.00
59337;BME280;45115;52.002;4.686;2022-12-08T09:07:08;100929.47;;;2.58;100.00
59337;BME280;45115;52.002;4.686;2022-12-08T09:09:36;100920.84;;;2.57;100.00
59337;BME280;45115;52.002;4.686;2022-12-08T09:12:04;100927.63;;;2.65;100.00
59337;BME280;45115;52.002;4.686;2022-12-08T09:14:31;100935.50;;;2.65;100.00
59337;BME280;45115;52.002;4.686;2022-12-08T09:16:58;100932.06;;;2.64;100.00
59337;BME280;45115;52.002;4.686;2022-12-08T09:19:24;100938.13;;;2.65;100.00
59337;BME280;45115;52.002;4.686;2022-12-08T09:21:51;100932.34;;;2.56;100.00
59337;BME280;45115;52.002;4.686;2022-12-08T09:24:18;100928.53;;;2.52;100.00
59337;BME280;45115;52.002;4.686;2022-12-08T09:26:46;100930.94;;;2.54;100.00
59337;BME280;45115;52.002;4.686;2022-12-08T09:29:13;100932.91;;;2.58;100.00
59337;BME280;45115;52.002;4.686;2022-12-08T09:31:40;100930.88;;;2.60;100.00
59337;BME280;45115;52.002;4.686;2022-12-08T09:34:07;100937.31;;;2.64;100.00
59337;BME280;45115;52.002;4.686;2022-12-08T09:36:35;100937.47;;;2.70;100.00
59337;BME280;45115;52.002;4.686;2022-12-08T09:39:02;100935.84;;;2.75;100.00
59337;BME280;45115;52.002;4.686;2022-12-08T09:41:31;100922.72;;;2.75;100.00
59337;BME280;45115;52.002;4.686;2022-12-08T09:44:10;100921.66;;;2.83;100.00
59337;BME280;45115;52.002;4.686;2022-12-08T09:46:39;100919.84;;;2.84;100.00
59337;BME280;45115;52.002;4.686;2022-12-08T09:49:13;100918.75;;;2.91;100.00
59337;BME280;45115;52.002;4.686;2022-12-08T09:51:43;100915.94;;;2.93;100.00
59337;BME280;45115;52.002;4.686;2022-12-08T09:54:14;100914.28;;;2.99;100.00
59337;BME280;45115;52.002;4.686;2022-12-08T09:56:43;100916.84;;;3.05;100.00
59337;BME280;45115;52.002;4.686;2022-12-08T09:59:21;100910.59;;;3.07;100.00
59337;BME280;45115;52.002;4.686;2022-12-08T10:01:49;100908.34;;;3.10;100.00
59337;BME280;45115;52.002;4.686;2022-12-08T10:04:22;100908.34;;;3.10;100.00
59337;BME280;45115;52.002;4.686;2022-12-08T10:06:58;100889.25;;;3.03;100.00
59337;BME280;45115;52.002;4.686;2022-12-08T10:09:36;100909.53;;;3.14;100.00
59337;BME280;45115;52.002;4.686;2022-12-08T10:12:12;100907.09;;;3.13;100.00
59337;BME280;45115;52.002;4.686;2022-12-08T10:14:46;100901.72;;;3.08;100.00
59337;BME280;45115;52.002;4.686;2022-12-08T10:17:21;100908.97;;;3.05;100.00
59337;BME280;45115;52.002;4.686;2022-12-08T10:20:10;100912.53;;;2.92;100.00
59337;BME280;45115;52.002;4.686;2022-12-08T10:22:37;100919.59;;;2.92;100.00
59337;BME280;45115;52.002;4.686;2022-12-08T10:25:10;100909.75;;;2.87;100.00
59337;BME280;45115;52.002;4.686;2022-12-08T10:27:40;100906.31;;;2.87;100.00
59337;BME280;45115;52.002;4.686;2022-12-08T10:30:10;100908.69;;;2.95;100.00
59337;BME280;45115;52.002;4.686;2022-12-08T10:32:38;100897.25;;;3.08;100.00
59337;BME280;45115;52.002;4.686;2022-12-08T10:35:10;100907.06;;;3.19;100.00
59337;BME280;45115;52.002;4.686;2022-12-08T10:37:38;100902.53;;;3.27;100.00
59337;BME280;45115;52.002;4.686;2022-12-08T10:40:09;100899.03;;;3.33;100.00
59337;BME280;45115;52.002;4.686;2022-12-08T10:42:39;100904.03;;;3.41;100.00
59337;BME280;45115;52.002;4.686;2022-12-08T10:45:20;100907.97;;;3.51;100.00
59337;BME280;45115;52.002;4.686;2022-12-08T10:47:57;100907.09;;;3.57;100.00
59337;BME280;45115;52.002;4.686;2022-12-08T10:50:30;100901.84;;;3.57;100.00
59337;BME280;45115;52.002;4.686;2022-12-08T10:52:59;100900.25;;;3.56;100.00
59337;BME280;45115;52.002;4.686;2022-12-08T10:55:28;100904.75;;;3.67;100.00
59337;BME280;45115;52.002;4.686;2022-12-08T10:58:04;100904.28;;;3.70;100.00
59337;BME280;45115;52.002;4.686;2022-12-08T11:00:31;100899.28;;;3.69;100.00
59337;BME280;45115;52.002;4.686;2022-12-08T11:03:01;100891.41;;;3.69;100.00
59337;BME280;45115;52.002;4.686;2022-12-08T11:05:34;100891.84;;;3.66;100.00
59337;BME280;45115;52.002;4.686;2022-12-08T11:08:03;100885.44;;;3.62;100.00
59337;BME280;45115;52.002;4.686;2022-12-08T11:10:35;100868.66;;;3.63;100.00
59337;BME280;45115;52.002;4.686;2022-12-08T11:13:05;100853.66;;;3.70;100.00
59337;BME280;45115;52.002;4.686;2022-12-08T11:15:37;100842.94;;;3.71;100.00
59337;BME280;45115;52.002;4.686;2022-12-08T11:18:17;100840.47;;;3.77;100.00
59337;BME280;45115;52.002;4.686;2022-12-08T11:20:56;100841.31;;;3.70;100.00
59337;BME280;45115;52.002;4.686;2022-12-08T11:23:25;100835.72;;;3.67;100.00
59337;BME280;45115;52.002;4.686;2022-12-08T11:25:53;100834.34;;;3.64;100.00
59337;BME280;45115;52.002;4.686;2022-12-08T11:28:23;100830.13;;;3.63;100.00
59337;BME280;45115;52.002;4.686;2022-12-08T11:30:55;100835.38;;;3.63;100.00
59337;BME280;45115;52.002;4.686;2022-12-08T11:33:24;100831.72;;;3.64;100.00
59337;BME280;45115;52.002;4.686;2022-12-08T11:35:58;100828.44;;;3.69;100.00
59337;BME280;45115;52.002;4.686;2022-12-08T11:38:27;100813.06;;;3.72;100.00
59337;BME280;45115;52.002;4.686;2022-12-08T11:40:57;100809.41;;;3.74;100.00
59337;BME280;45115;52.002;4.686;2022-12-08T11:43:34;100809.41;;;3.74;100.00
59337;BME280;45115;52.002;4.686;2022-12-08T11:46:10;100804.72;;;3.76;100.00
59337;BME280;45115;52.002;4.686;2022-12-08T11:48:44;100814.56;;;3.80;100.00
59337;BME280;45115;52.002;4.686;2022-12-08T11:51:16;100806.56;;;3.75;100.00
59337;BME280;45115;52.002;4.686;2022-12-08T11:53:50;100812.59;;;3.76;100.00
59337;BME280;45115;52.002;4.686;2022-12-08T11:56:23;100814.66;;;3.74;100.00
59337;BME280;45115;52.002;4.686;2022-12-08T11:58:55;100832.81;;;3.75;100.00
59337;BME280;45115;52.002;4.686;2022-12-08T12:01:26;100847.88;;;3.80;100.00
59337;BME280;45115;52.002;4.686;2022-12-08T12:04:01;100850.81;;;3.71;100.00
59337;BME280;45115;52.002;4.686;2022-12-08T12:06:53;100848.91;;;3.60;100.00
59337;BME280;45115;52.002;4.686;2022-12-08T12:09:35;100844.19;;;3.50;100.00
59337;BME280;45115;52.002;4.686;2022-12-08T12:12:10;100833.34;;;3.47;100.00
59337;BME280;45115;52.002;4.686;2022-12-08T12:17:41;100816.28;;;3.00;100.00
59337;BME280;45115;52.002;4.686;2022-12-08T12:20:14;100804.84;;;2.75;100.00
59337;BME280;45115;52.002;4.686;2022-12-08T12:22:47;100794.25;;;2.63;100.00
59337;BME280;45115;52.002;4.686;2022-12-08T12:25:18;100801.91;;;2.65;100.00
59337;BME280;45115;52.002;4.686;2022-12-08T12:27:46;100793.94;;;2.53;100.00
59337;BME280;45115;52.002;4.686;2022-12-08T12:30:21;100793.53;;;2.56;100.00
59337;BME280;45115;52.002;4.686;2022-12-08T12:32:52;100776.03;;;2.50;100.00
59337;BME280;45115;52.002;4.686;2022-12-08T12:35:29;100796.63;;;2.72;100.00
59337;BME280;45115;52.002;4.686;2022-12-08T12:38:03;100780.81;;;2.78;100.00
59337;BME280;45115;52.002;4.686;2022-12-08T12:40:58;100783.66;;;2.77;100.00
59337;BME280;45115;52.002;4.686;2022-12-08T12:43:29;100787.13;;;2.71;100.00
59337;BME280;45115;52.002;4.686;2022-12-08T12:46:41;100786.75;;;2.67;100.00
59337;BME280;45115;52.002;4.686;2022-12-08T12:52:44;100784.69;;;2.50;100.00
59337;BME280;45115;52.002;4.686;2022-12-08T12:58:34;100777.56;;;3.02;100.00
59337;BME280;45115;52.002;4.686;2022-12-08T13:04:07;100782.50;;;3.29;100.00
59337;BME280;45115;52.002;4.686;2022-12-08T13:06:38;100782.22;;;3.37;100.00
59337;BME280;45115;52.002;4.686;2022-12-08T13:09:17;100784.53;;;3.45;100.00
59337;BME280;45115;52.002;4.686;2022-12-08T13:11:49;100781.31;;;3.62;100.00
59337;BME280;45115;52.002;4.686;2022-12-08T13:14:37;100781.16;;;3.88;100.00
59337;BME280;45115;52.002;4.686;2022-12-08T13:17:12;100772.59;;;3.92;100.00
59337;BME280;45115;52.002;4.686;2022-12-08T13:19:41;100768.72;;;3.83;100.00
59337;BME280;45115;52.002;4.686;2022-12-08T13:25:45;100775.03;;;4.06;100.00
59337;BME280;45115;52.002;4.686;2022-12-08T13:28:18;100769.25;;;4.28;100.00
59337;BME280;45115;52.002;4.686;2022-12-08T13:30:47;100774.19;;;4.36;100.00
59337;BME280;45115;52.002;4.686;2022-12-08T13:33:17;100769.31;;;3.97;100.00
59337;BME280;45115;52.002;4.686;2022-12-08T13:35:54;100769.63;;;3.77;100.00
59337;BME280;45115;52.002;4.686;2022-12-08T13:38:27;100767.78;;;3.47;100.00
59337;BME280;45115;52.002;4.686;2022-12-08T13:40:55;100770.06;;;3.24;100.00
59337;BME280;45115;52.002;4.686;2022-12-08T13:43:32;100764.94;;;3.11;100.00
59337;BME280;45115;52.002;4.686;2022-12-08T13:46:04;100774.56;;;2.98;100.00
59337;BME280;45115;52.002;4.686;2022-12-08T13:48:41;100762.03;;;2.82;100.00
59337;BME280;45115;52.002;4.686;2022-12-08T13:51:14;100761.75;;;2.71;100.00
59337;BME280;45115;52.002;4.686;2022-12-08T13:53:43;100762.00;;;2.63;100.00
59337;BME280;45115;52.002;4.686;2022-12-08T13:56:11;100766.09;;;2.59;100.00
59337;BME280;45115;52.002;4.686;2022-12-08T13:58:39;100760.84;;;2.59;100.00
59337;BME280;45115;52.002;4.686;2022-12-08T14:01:11;100756.28;;;2.73;100.00
59337;BME280;45115;52.002;4.686;2022-12-08T14:03:46;100766.63;;;2.86;100.00
59337;BME280;45115;52.002;4.686;2022-12-08T14:06:14;100761.31;;;2.93;100.00
59337;BME280;45115;52.002;4.686;2022-12-08T14:08:42;100761.69;;;2.97;100.00
59337;BME280;45115;52.002;4.686;2022-12-08T14:11:21;100775.16;;;3.00;100.00
59337;BME280;45115;52.002;4.686;2022-12-08T14:13:59;100776.16;;;2.99;100.00
59337;BME280;45115;52.002;4.686;2022-12-08T14:16:39;100770.22;;;2.92;100.00
59337;BME280;45115;52.002;4.686;2022-12-08T14:19:15;100779.03;;;2.98;100.00
59337;BME280;45115;52.002;4.686;2022-12-08T14:21:49;100776.84;;;2.95;100.00
59337;BME280;45115;52.002;4.686;2022-12-08T14:24:16;100770.00;;;2.94;100.00
59337;BME280;45115;52.002;4.686;2022-12-08T14:26:44;100776.03;;;2.94;100.00
59337;BME280;45115;52.002;4.686;2022-12-08T14:29:19;100771.38;;;2.96;100.00
59337;BME280;45115;52.002;4.686;2022-12-08T14:31:54;100773.19;;;2.96;100.00
59337;BME280;45115;52.002;4.686;2022-12-08T14:34:21;100764.53;;;2.95;100.00
59337;BME280;45115;52.002;4.686;2022-12-08T14:36:48;100765.69;;;2.99;100.00
59337;BME280;45115;52.002;4.686;2022-12-08T14:39:16;100768.97;;;2.95;100.00
59337;BME280;45115;52.002;4.686;2022-12-08T14:41:57;100776.31;;;2.86;100.00
59337;BME280;45115;52.002;4.686;2022-12-08T14:44:29;100775.00;;;2.76;100.00
59337;BME280;45115;52.002;4.686;2022-12-08T14:47:05;100776.28;;;2.67;100.00
59337;BME280;45115;52.002;4.686;2022-12-08T14:49:33;100754.00;;;2.58;100.00
59337;BME280;45115;52.002;4.686;2022-12-08T14:52:01;100760.00;;;2.39;100.00
59337;BME280;45115;52.002;4.686;2022-12-08T14:54:29;100761.66;;;2.34;100.00
59337;BME280;45115;52.002;4.686;2022-12-08T14:56:56;100768.34;;;2.30;100.00
59337;BME280;45115;52.002;4.686;2022-12-08T14:59:27;100766.00;;;2.21;100.00
59337;BME280;45115;52.002;4.686;2022-12-08T15:02:11;100775.66;;;2.21;100.00
59337;BME280;45115;52.002;4.686;2022-12-08T15:04:41;100758.59;;;2.11;100.00
59337;BME280;45115;52.002;4.686;2022-12-08T15:07:11;100762.41;;;2.16;100.00
59337;BME280;45115;52.002;4.686;2022-12-08T15:09:40;100772.06;;;2.15;100.00
59337;BME280;45115;52.002;4.686;2022-12-08T15:12:19;100777.53;;;2.14;100.00
59337;BME280;45115;52.002;4.686;2022-12-08T15:14:54;100767.09;;;2.07;100.00
59337;BME280;45115;52.002;4.686;2022-12-08T15:17:33;100759.84;;;2.09;100.00
59337;BME280;45115;52.002;4.686;2022-12-08T15:20:01;100769.28;;;2.10;100.00
59337;BME280;45115;52.002;4.686;2022-12-08T15:22:29;100763.47;;;2.08;100.00
59337;BME280;45115;52.002;4.686;2022-12-08T15:24:56;100757.00;;;2.10;100.00
59337;BME280;45115;52.002;4.686;2022-12-08T15:27:24;100740.97;;;2.00;100.00
59337;BME280;45115;52.002;4.686;2022-12-08T15:29:51;100744.41;;;2.01;100.00
59337;BME280;45115;52.002;4.686;2022-12-08T15:32:20;100746.63;;;1.97;100.00
59337;BME280;45115;52.002;4.686;2022-12-08T15:34:48;100740.06;;;1.88;100.00
59337;BME280;45115;52.002;4.686;2022-12-08T15:37:19;100733.91;;;1.68;100.00
59337;BME280;45115;52.002;4.686;2022-12-08T15:39:46;100730.41;;;1.49;100.00
59337;BME280;45115;52.002;4.686;2022-12-08T15:42:13;100727.13;;;1.22;100.00
59337;BME280;45115;52.002;4.686;2022-12-08T15:44:40;100731.38;;;1.09;100.00
59337;BME280;45115;52.002;4.686;2022-12-08T15:47:10;100736.22;;;1.05;100.00
59337;BME280;45115;52.002;4.686;2022-12-08T15:49:38;100744.91;;;0.86;100.00
59337;BME280;45115;52.002;4.686;2022-12-08T15:52:11;100731.09;;;0.72;100.00
59337;BME280;45115;52.002;4.686;2022-12-08T15:54:38;100739.53;;;0.60;100.00
59337;BME280;45115;52.002;4.686;2022-12-08T15:57:07;100745.59;;;0.54;100.00
59337;BME280;45115;52.002;4.686;2022-12-08T15:59:42;100737.94;;;0.46;100.00
59337;BME280;45115;52.002;4.686;2022-12-08T16:02:11;100732.53;;;0.47;100.00
59337;BME280;45115;52.002;4.686;2022-12-08T16:04:37;100737.56;;;0.42;100.00
59337;BME280;45115;52.002;4.686;2022-12-08T16:07:22;100731.94;;;0.38;100.00
59337;BME280;45115;52.002;4.686;2022-12-08T16:09:49;100736.34;;;0.38;100.00
59337;BME280;45115;52.002;4.686;2022-12-08T16:12:18;100738.56;;;0.41;100.00
59337;BME280;45115;52.002;4.686;2022-12-08T16:15:04;100740.19;;;0.22;100.00
59337;BME280;45115;52.002;4.686;2022-12-08T16:17:31;100725.72;;;0.19;100.00
59337;BME280;45115;52.002;4.686;2022-12-08T16:19:59;100737.56;;;0.08;100.00
59337;BME280;45115;52.002;4.686;2022-12-08T16:22:29;100728.91;;;-0.06;100.00
59337;BME280;45115;52.002;4.686;2022-12-08T16:24:56;100725.50;;;0.01;100.00
59337;BME280;45115;52.002;4.686;2022-12-08T16:27:25;100723.09;;;-0.08;100.00
59337;BME280;45115;52.002;4.686;2022-12-08T16:29:53;100722.09;;;-0.07;100.00
59337;BME280;45115;52.002;4.686;2022-12-08T16:32:21;100723.31;;;-0.03;100.00
59337;BME280;45115;52.002;4.686;2022-12-08T16:34:48;100710.28;;;-0.03;100.00
59337;BME280;45115;52.002;4.686;2022-12-08T16:37:17;100728.72;;;0.09;100.00
59337;BME280;45115;52.002;4.686;2022-12-08T16:39:46;100722.72;;;0.09;100.00
59337;BME280;45115;52.002;4.686;2022-12-08T16:42:15;100720.72;;;0.18;100.00
59337;BME280;45115;52.002;4.686;2022-12-08T16:45:02;100715.47;;;0.38;100.00
59337;BME280;45115;52.002;4.686;2022-12-08T16:47:29;100726.09;;;0.50;100.00
59337;BME280;45115;52.002;4.686;2022-12-08T16:49:55;100715.03;;;0.61;100.00
59337;BME280;45115;52.002;4.686;2022-12-08T16:52:22;100721.25;;;0.74;100.00
59337;BME280;45115;52.002;4.686;2022-12-08T16:54:50;100710.00;;;0.73;100.00
59337;BME280;45115;52.002;4.686;2022-12-08T16:57:17;100704.78;;;0.73;100.00
59337;BME280;45115;52.002;4.686;2022-12-08T16:59:44;100722.03;;;0.81;100.00
59337;BME280;45115;52.002;4.686;2022-12-08T17:02:10;100697.13;;;0.72;100.00
59337;BME280;45115;52.002;4.686;2022-12-08T17:04:37;100709.34;;;0.91;100.00
59337;BME280;45115;52.002;4.686;2022-12-08T17:07:04;100706.28;;;1.01;100.00
59337;BME280;45115;52.002;4.686;2022-12-08T17:09:31;100691.81;;;1.05;100.00
59337;BME280;45115;52.002;4.686;2022-12-08T17:11:59;100681.00;;;0.95;100.00
59337;BME280;45115;52.002;4.686;2022-12-08T17:14:26;100691.25;;;0.97;100.00
59337;BME280;45115;52.002;4.686;2022-12-08T17:16:56;100699.75;;;0.78;100.00
59337;BME280;45115;52.002;4.686;2022-12-08T17:19:22;100696.13;;;0.73;100.00
59337;BME280;45115;52.002;4.686;2022-12-08T17:21:49;100710.19;;;0.78;100.00
59337;BME280;45115;52.002;4.686;2022-12-08T17:24:16;100694.13;;;0.75;100.00
59337;BME280;45115;52.002;4.686;2022-12-08T17:26:44;100702.25;;;1.05;100.00
59337;BME280;45115;52.002;4.686;2022-12-08T17:29:12;100702.22;;;1.19;100.00
59337;BME280;45115;52.002;4.686;2022-12-08T17:31:39;100701.56;;;1.30;100.00
59337;BME280;45115;52.002;4.686;2022-12-08T17:34:06;100705.13;;;1.36;100.00
59337;BME280;45115;52.002;4.686;2022-12-08T17:36:34;100704.94;;;1.38;100.00
59337;BME280;45115;52.002;4.686;2022-12-08T17:39:02;100697.91;;;1.38;100.00
59337;BME280;45115;52.002;4.686;2022-12-08T17:41:29;100695.69;;;1.35;100.00
59337;BME280;45115;52.002;4.686;2022-12-08T17:43:56;100702.13;;;1.39;100.00
59337;BME280;45115;52.002;4.686;2022-12-08T17:46:24;100697.88;;;1.45;100.00
59337;BME280;45115;52.002;4.686;2022-12-08T17:48:51;100697.03;;;1.51;100.00
59337;BME280;45115;52.002;4.686;2022-12-08T17:51:18;100691.03;;;1.44;100.00
59337;BME280;45115;52.002;4.686;2022-12-08T17:53:45;100690.06;;;1.38;100.00
59337;BME280;45115;52.002;4.686;2022-12-08T17:56:14;100696.34;;;1.30;100.00
59337;BME280;45115;52.002;4.686;2022-12-08T17:58:41;100701.56;;;1.30;100.00
59337;BME280;45115;52.002;4.686;2022-12-08T18:01:09;100685.34;;;1.15;100.00
59337;BME280;45115;52.002;4.686;2022-12-08T18:03:37;100685.19;;;1.03;100.00
59337;BME280;45115;52.002;4.686;2022-12-08T18:06:05;100685.03;;;0.84;100.00
59337;BME280;45115;52.002;4.686;2022-12-08T18:08:32;100682.50;;;0.71;100.00
59337;BME280;45115;52.002;4.686;2022-12-08T18:10:59;100686.94;;;0.57;100.00
59337;BME280;45115;52.002;4.686;2022-12-08T18:13:26;100685.94;;;0.44;100.00
59337;BME280;45115;52.002;4.686;2022-12-08T18:15:52;100679.53;;;0.40;100.00
59337;BME280;45115;52.002;4.686;2022-12-08T18:18:19;100688.16;;;0.47;100.00
59337;BME280;45115;52.002;4.686;2022-12-08T18:20:48;100672.88;;;0.44;100.00
59337;BME280;45115;52.002;4.686;2022-12-08T18:23:15;100669.09;;;0.40;100.00
59337;BME280;45115;52.002;4.686;2022-12-08T18:25:43;100661.69;;;0.37;100.00
59337;BME280;45115;52.002;4.686;2022-12-08T18:28:10;100671.47;;;0.48;100.00
59337;BME280;45115;52.002;4.686;2022-12-08T18:30:38;100657.84;;;0.39;100.00
59337;BME280;45115;52.002;4.686;2022-12-08T18:33:05;100655.44;;;0.51;100.00
59337;BME280;45115;52.002;4.686;2022-12-08T18:35:33;100663.44;;;0.63;100.00
59337;BME280;45115;52.002;4.686;2022-12-08T18:38:02;100671.66;;;0.67;100.00
59337;BME280;45115;52.002;4.686;2022-12-08T18:40:29;100663.84;;;0.53;100.00
59337;BME280;45115;52.002;4.686;2022-12-08T18:42:56;100674.91;;;0.42;100.00
59337;BME280;45115;52.002;4.686;2022-12-08T18:45:23;100672.31;;;0.42;100.00
59337;BME280;45115;52.002;4.686;2022-12-08T18:47:52;100667.28;;;0.34;100.00
59337;BME280;45115;52.002;4.686;2022-12-08T18:50:19;100668.09;;;0.21;100.00
59337;BME280;45115;52.002;4.686;2022-12-08T18:52:46;100672.72;;;0.12;100.00
59337;BME280;45115;52.002;4.686;2022-12-08T18:55:14;100666.94;;;0.10;100.00
59337;BME280;45115;52.002;4.686;2022-12-08T18:57:41;100672.34;;;0.02;100.00
59337;BME280;45115;52.002;4.686;2022-12-08T19:00:10;100667.72;;;-0.03;100.00
59337;BME280;45115;52.002;4.686;2022-12-08T19:02:38;100660.09;;;-0.05;100.00
59337;BME280;45115;52.002;4.686;2022-12-08T19:05:05;100670.13;;;-0.08;100.00
59337;BME280;45115;52.002;4.686;2022-12-08T19:07:32;100670.13;;;-0.08;100.00
59337;BME280;45115;52.002;4.686;2022-12-08T19:09:59;100671.53;;;-0.06;100.00
59337;BME280;45115;52.002;4.686;2022-12-08T19:12:27;100677.94;;;-0.22;100.00
59337;BME280;45115;52.002;4.686;2022-12-08T19:14:54;100668.91;;;-0.33;100.00
59337;BME280;45115;52.002;4.686;2022-12-08T19:17:20;100676.94;;;-0.34;100.00